createdAt,value
2023-03-02T00:03:50.337Z,3.17
2023-03-02T00:08:47.378Z,3.92
2023-03-02T00:13:44.244Z,3.72
2023-03-02T00:18:41.922Z,4.15
2023-03-02T00:23:38.860Z,2.58
2023-03-02T00:28:35.672Z,3.08
2023-03-02T00:33:33.247Z,2.13
2023-03-02T00:38:30.932Z,3.28
2023-03-02T00:43:28.376Z,2.65
2023-03-02T00:48:25.444Z,10.27
2023-03-02T00:53:22.409Z,3.53
2023-03-02T00:58:21.292Z,2.60
2023-03-02T01:03:18.685Z,3.63
2023-03-02T01:08:15.985Z,3.05
2023-03-02T01:13:13.009Z,0.93
2023-03-02T01:18:12.125Z,3.13
2023-03-02T01:23:08.996Z,4.40
2023-03-02T01:28:06.007Z,1.55
2023-03-02T01:33:02.963Z,5.80
2023-03-02T01:38:00.544Z,2.45
2023-03-02T01:43:01.817Z,3.97
2023-03-02T01:47:58.742Z,2.75
2023-03-02T01:52:56.689Z,3.38
2023-03-02T01:57:56.686Z,1.83
2023-03-02T02:02:56.948Z,2.45
2023-03-02T02:07:54.329Z,5.57
2023-03-02T02:12:51.797Z,3.15
2023-03-02T02:17:51.448Z,4.20
2023-03-02T02:23:03.079Z,3.25
2023-03-02T02:28:03.333Z,5.43
2023-03-02T02:33:01.351Z,4.07
2023-03-02T02:38:03.061Z,3.33
2023-03-02T02:43:02.604Z,3.28
2023-03-02T02:47:59.622Z,3.80
2023-03-02T02:53:02.143Z,4.60
2023-03-02T02:58:08.659Z,4.07
2023-03-02T03:03:28.486Z,7.50
2023-03-02T03:08:56.405Z,4.95
2023-03-02T03:14:05.288Z,8.27
2023-03-02T03:19:08.047Z,2.72
2023-03-02T03:24:05.938Z,5.78
2023-03-02T03:29:04.435Z,6.72
2023-03-02T03:34:02.043Z,4.65
2023-03-02T03:39:05.365Z,4.68
2023-03-02T03:44:04.356Z,8.07
2023-03-02T03:49:04.563Z,4.88
2023-03-02T03:54:02.854Z,4.03
2023-03-02T03:59:08.042Z,2.88
2023-03-02T04:04:15.885Z,4.43
2023-03-02T04:09:14.832Z,4.57
2023-03-02T04:14:15.010Z,7.97
2023-03-02T04:19:13.358Z,3.55
2023-03-02T04:24:17.642Z,11.23
2023-03-02T04:29:16.134Z,6.68
2023-03-02T04:34:15.138Z,4.32
2023-03-02T04:39:16.413Z,7.78
2023-03-02T04:44:18.392Z,4.20
2023-03-02T04:49:17.098Z,3.95
2023-03-02T04:54:17.141Z,3.17
2023-03-02T04:59:14.216Z,5.03
2023-03-02T05:04:18.057Z,3.45
2023-03-02T05:09:15.589Z,5.63
2023-03-02T05:14:13.151Z,4.50
2023-03-02T05:19:11.528Z,4.15
2023-03-02T05:24:09.320Z,7.05
2023-03-02T05:29:06.451Z,5.13
2023-03-02T05:34:04.480Z,3.38
2023-03-02T05:39:02.328Z,4.10
2023-03-02T05:44:00.327Z,3.22
2023-03-02T05:48:57.388Z,3.60
2023-03-02T05:53:54.332Z,5.72
2023-03-02T05:58:51.317Z,4.43
2023-03-02T06:03:49.247Z,5.53
2023-03-02T06:08:46.261Z,3.80
2023-03-02T06:13:43.253Z,5.80
2023-03-02T06:18:41.544Z,5.35
2023-03-02T06:23:39.278Z,5.13
2023-03-02T06:28:51.452Z,3.63
2023-03-02T06:33:49.630Z,3.53
2023-03-02T06:38:47.560Z,5.82
2023-03-02T06:43:44.798Z,4.28
2023-03-02T06:48:41.920Z,4.95
2023-03-02T06:53:39.078Z,4.68
2023-03-02T06:58:42.401Z,11.00
2023-03-02T07:03:45.983Z,3.97
2023-03-02T07:08:43.217Z,4.32
2023-03-02T07:13:41.861Z,2.42
2023-03-02T07:18:39.259Z,3.72
2023-03-02T07:23:36.348Z,4.32
2023-03-02T07:28:41.405Z,3.40
2023-03-02T07:33:41.973Z,3.45
2023-03-02T07:38:39.342Z,2.20
2023-03-02T07:43:36.913Z,3.05
2023-03-02T07:48:34.930Z,5.60
2023-03-02T07:53:33.127Z,3.83
2023-03-02T07:58:29.887Z,4.72
2023-03-02T08:03:26.661Z,8.30
2023-03-02T08:08:23.626Z,4.68
2023-03-02T08:13:21.195Z,6.00
2023-03-02T08:18:18.051Z,4.10
2023-03-02T08:23:14.840Z,4.75
2023-03-02T08:28:11.678Z,7.47
2023-03-02T08:33:09.356Z,3.47
2023-03-02T08:38:06.172Z,12.45
2023-03-02T08:43:03.168Z,3.70
2023-03-02T08:47:59.972Z,6.80
2023-03-02T08:52:57.824Z,4.22
2023-03-02T08:57:55.070Z,5.35
2023-03-02T09:02:52.051Z,7.38
2023-03-02T09:07:48.935Z,4.53
2023-03-02T09:12:46.401Z,5.18
2023-03-02T09:17:43.277Z,5.93
2023-03-02T09:22:41.867Z,10.07
2023-03-02T09:27:38.691Z,5.65
2023-03-02T09:32:38.894Z,9.43
2023-03-02T09:37:38.412Z,6.95
2023-03-02T09:42:54.245Z,5.82
2023-03-02T09:48:01.811Z,5.75
2023-03-02T09:53:20.998Z,6.40
2023-03-02T09:58:20.550Z,6.10
2023-03-02T10:03:21.460Z,6.10
2023-03-02T10:08:22.302Z,9.63
2023-03-02T10:13:25.074Z,8.05
2023-03-02T10:18:28.889Z,8.60
2023-03-02T10:23:41.599Z,7.35
2023-03-02T10:28:44.408Z,5.70
2023-03-02T10:33:42.170Z,9.70
2023-03-02T10:38:39.595Z,4.05
2023-03-02T10:43:45.193Z,5.90
2023-03-02T10:48:55.588Z,11.70
2023-03-02T10:54:06.966Z,4.50
2023-03-02T10:59:38.734Z,11.70
2023-03-02T11:04:36.426Z,5.90
2023-03-02T11:09:33.359Z,7.57
2023-03-02T11:14:30.242Z,5.07
2023-03-02T11:19:35.184Z,8.52
2023-03-02T11:24:38.999Z,3.33
2023-03-02T11:29:41.891Z,5.93
2023-03-02T11:34:46.221Z,1.17
2023-03-02T11:40:13.186Z,6.53
2023-03-02T11:45:19.572Z,3.85
2023-03-02T11:50:17.345Z,4.47
2023-03-02T11:55:18.699Z,3.35
2023-03-02T12:00:27.304Z,2.92
2023-03-02T12:05:30.852Z,5.10
2023-03-02T12:10:35.643Z,38.17
2023-03-02T12:15:39.477Z,38.45
2023-03-02T12:20:36.895Z,35.83
2023-03-02T12:25:41.312Z,36.20
2023-03-02T12:30:38.069Z,32.05
2023-03-02T12:35:35.825Z,37.75
2023-03-02T12:40:59.389Z,36.60
2023-03-02T12:46:25.997Z,33.17
2023-03-02T12:51:25.359Z,30.60
2023-03-02T12:56:24.378Z,33.55
2023-03-02T13:01:26.826Z,30.92
2023-03-02T13:06:27.853Z,28.88
2023-03-02T13:11:29.794Z,34.63
2023-03-02T13:16:29.187Z,30.10
2023-03-02T13:21:32.351Z,30.17
2023-03-02T13:26:31.272Z,32.58
2023-03-02T13:31:28.512Z,30.40
2023-03-02T13:36:37.978Z,36.10
2023-03-02T13:41:53.440Z,34.15
2023-03-02T13:46:50.336Z,37.13
2023-03-02T13:51:47.840Z,37.90
2023-03-02T13:56:53.789Z,34.67
2023-03-02T14:01:51.007Z,33.70
2023-03-02T14:06:51.696Z,35.88
2023-03-02T14:11:52.528Z,29.55
2023-03-02T14:16:50.270Z,27.67
2023-03-02T14:21:47.356Z,32.53
2023-03-02T14:26:47.250Z,29.45
2023-03-02T14:31:45.243Z,31.85
2023-03-02T14:36:45.507Z,34.05
2023-03-02T14:41:53.025Z,29.58
2023-03-02T14:46:50.992Z,29.92
2023-03-02T14:52:00.290Z,34.60
2023-03-02T14:56:57.098Z,31.13
2023-03-02T15:01:55.713Z,35.05
2023-03-02T15:06:54.840Z,35.47
2023-03-02T15:11:51.723Z,28.52
2023-03-02T15:16:48.601Z,31.85
2023-03-02T15:21:45.916Z,32.05
2023-03-02T15:26:43.385Z,31.70
2023-03-02T15:31:43.190Z,33.75
2023-03-02T15:36:40.893Z,36.72
2023-03-02T15:41:37.892Z,35.80
2023-03-02T15:46:35.533Z,34.00
2023-03-02T15:51:32.415Z,31.25
2023-03-02T15:56:38.784Z,28.52
2023-03-02T16:01:41.140Z,31.35
2023-03-02T16:06:38.446Z,32.20
2023-03-02T16:11:35.578Z,31.95
2023-03-02T16:16:32.643Z,32.20
2023-03-02T16:21:30.952Z,33.55
2023-03-02T16:26:27.941Z,28.17
2023-03-02T16:31:26.455Z,32.88
2023-03-02T16:36:23.454Z,34.92
2023-03-02T16:41:22.730Z,36.10
2023-03-02T16:46:21.304Z,36.30
2023-03-02T16:51:19.328Z,33.92
2023-03-02T16:56:16.462Z,34.72
2023-03-02T17:01:16.361Z,36.88
2023-03-02T17:06:15.265Z,38.00
2023-03-02T17:11:12.328Z,33.08
2023-03-02T17:16:09.598Z,40.25
2023-03-02T17:21:08.267Z,42.65
2023-03-02T17:26:06.240Z,39.67
2023-03-02T17:31:04.498Z,34.92
2023-03-02T17:36:09.106Z,41.22
2023-03-02T17:41:07.702Z,43.20
2023-03-02T17:46:11.453Z,40.30
2023-03-02T17:51:11.181Z,47.75
2023-03-02T17:56:09.114Z,36.45
2023-03-02T18:01:06.291Z,37.67
2023-03-02T18:06:04.078Z,34.08
2023-03-02T18:11:00.930Z,35.15
2023-03-02T18:16:01.863Z,44.92
2023-03-02T18:21:01.698Z,41.90
2023-03-02T18:26:01.867Z,41.85
2023-03-02T18:30:59.725Z,42.05
2023-03-02T18:35:56.682Z,38.40
2023-03-02T18:40:53.430Z,39.85
2023-03-02T18:45:50.303Z,37.72
2023-03-02T18:50:48.125Z,35.88
2023-03-02T18:55:46.594Z,34.38
2023-03-02T19:00:45.214Z,39.88
2023-03-02T19:05:42.856Z,35.85
2023-03-02T19:10:41.661Z,35.15
2023-03-02T19:15:39.365Z,30.77
2023-03-02T19:20:36.153Z,33.40
2023-03-02T19:25:33.334Z,36.08
2023-03-02T19:30:31.425Z,36.10
2023-03-02T19:35:29.456Z,31.73
2023-03-02T19:40:29.296Z,37.20
2023-03-02T19:45:29.080Z,32.25
2023-03-02T19:50:28.308Z,29.63
2023-03-02T19:55:26.309Z,33.00
2023-03-02T20:00:24.140Z,32.17
2023-03-02T20:05:25.498Z,33.92
2023-03-02T20:10:32.824Z,31.10
2023-03-02T20:15:31.980Z,33.05
2023-03-02T20:20:29.379Z,33.08
2023-03-02T20:25:28.449Z,40.83
2023-03-02T20:30:30.345Z,41.20
2023-03-02T20:35:30.871Z,40.63
2023-03-02T20:40:29.363Z,39.17
2023-03-02T20:45:27.740Z,42.28
2023-03-02T20:50:29.735Z,33.80
2023-03-02T20:55:28.793Z,33.75
2023-03-02T21:00:27.966Z,34.30
2023-03-02T21:05:26.356Z,34.83
2023-03-02T21:10:25.872Z,36.22
2023-03-02T21:15:26.572Z,32.88
2023-03-02T21:20:27.937Z,36.45
2023-03-02T21:25:27.848Z,33.35
2023-03-02T21:30:33.412Z,36.42
2023-03-02T21:35:30.835Z,34.22
2023-03-02T21:40:32.247Z,35.25
2023-03-02T21:45:30.338Z,34.30
2023-03-02T21:50:31.937Z,34.20
2023-03-02T21:55:33.082Z,35.38
2023-03-02T22:00:34.401Z,34.90
2023-03-02T22:05:31.821Z,33.80
2023-03-02T22:10:32.863Z,34.10
2023-03-02T22:15:31.088Z,35.88
2023-03-02T22:20:31.743Z,38.10
2023-03-02T22:25:28.554Z,33.67
2023-03-02T22:30:26.110Z,41.88
2023-03-02T22:35:26.384Z,39.38
2023-03-02T22:40:29.056Z,31.73
2023-03-02T22:45:26.360Z,35.25
2023-03-02T22:50:26.814Z,35.88
2023-03-02T22:55:36.911Z,38.70
2023-03-02T23:00:37.287Z,36.85
2023-03-02T23:05:35.171Z,30.52
2023-03-02T23:10:32.825Z,37.05
2023-03-02T23:15:36.114Z,32.83
2023-03-02T23:20:34.373Z,38.65
2023-03-02T23:25:31.465Z,37.00
2023-03-02T23:30:28.611Z,35.83
2023-03-02T23:35:26.379Z,36.75
2023-03-02T23:40:24.942Z,31.88
2023-03-02T23:45:22.515Z,31.55
2023-03-02T23:50:20.510Z,36.75
2023-03-02T23:55:17.963Z,33.25
